Weather History for Big Bear City, CA

Change the Weather History Date:

Monday, February 4, 2013

  Actual Average (KBUO) Record (KBUO)
Temperature  
Mean Temperature 38 °F -  
Max Temperature 51 °F 57 °F 80 °F (2001)
Min Temperature 24 °F 40 °F 39 °F (1997)
Degree Days  
Heating Degree Days 28    
Moisture  
Dew Point 21 °F    
Average Humidity 59    
Maximum Humidity 86    
Minimum Humidity 24    
Precipitation  
Precipitation 0.00 in - - ()
Sea Level Pressure  
Sea Level Pressure 30.16 in    
Wind  
Wind Speed 2 mph (ENE)    
Max Wind Speed 12 mph    
Max Gust Speed 16 mph    
Visibility 10 miles    
Events      
Averages and records for this station are not official NWS values.
T = Trace of Precipitation, MM = Missing Value Source: NWS Daily Summary

Daily Weather History Graph

Daily Weather History Graph

Search for Another Location

Airport:

Trip Planner

Search our weather history database for the weather conditions in past years. The results will help you decide how hot, cold, wet, or windy it might be!

Date:

Astronomy

Feb. 04, 2013 Rise Set
Actual Time 6:42 AM PST 5:20 PM PST
Civil Twilight 6:16 AM PST 5:47 PM PST
Nautical Twilight 5:46 AM PST 6:16 PM PST
Astronomical Twilight 5:16 AM PST 6:46 PM PST
Moon 1:19 AM PST (2/4) 11:52 AM PST (2/4)
Length of Visible Light 11h 30m
Length of Day
10h 38m
Last Quarter, 36% of the Moon is Illuminated
Feb 4
Last Quarter
Feb 9
New
Feb 17
First Quarter
Feb 25
Full
Mar 4
Last Quarter

Hourly Weather History & Observations

Time (PST) Temp. Windchill Dew Point Humidity Pressure Visibility Wind Dir Wind Speed Gust Speed Precip Events Conditions
12:15 AM 28.4 °F - 23.0 °F 80% 30.18 in 10.0 mi Calm Calm - N/A   Clear
12:35 AM 28.4 °F - 23.0 °F 80% 30.18 in 10.0 mi Calm Calm - N/A   Clear
12:55 AM 28.4 °F - 23.0 °F 80% 30.18 in 10.0 mi Calm Calm - N/A   Clear
1:15 AM 28.4 °F - 23.0 °F 80% 30.18 in 10.0 mi Calm Calm - N/A   Clear
2:55 AM 26.6 °F - 23.0 °F 86% 30.16 in 10.0 mi Calm Calm - N/A   Clear
3:15 AM 26.6 °F - 23.0 °F 86% 30.16 in 10.0 mi Calm Calm - N/A   Clear
3:35 AM 26.6 °F - 23.0 °F 86% 30.16 in 10.0 mi Calm Calm - N/A   Clear
3:55 AM 26.6 °F - 23.0 °F 86% 30.16 in 10.0 mi Calm Calm - N/A   Clear
4:15 AM 26.6 °F - 23.0 °F 86% 30.16 in 10.0 mi Calm Calm - N/A   Clear
4:55 AM 26.6 °F - 21.2 °F 80% 30.16 in 10.0 mi Calm Calm - N/A   Clear
5:15 AM 26.6 °F - 21.2 °F 80% 30.16 in 10.0 mi Calm Calm - N/A   Clear
5:35 AM 26.6 °F - 21.2 °F 80% 30.16 in 10.0 mi Calm Calm - N/A   Clear
5:55 AM 26.6 °F - 21.2 °F 80% 30.16 in 10.0 mi Calm Calm - N/A   Clear
6:15 AM 26.6 °F - 23.0 °F 86% 30.16 in 10.0 mi Calm Calm - N/A   Clear
6:35 AM 24.8 °F - 21.2 °F 86% 30.16 in 10.0 mi Calm Calm - N/A   Clear
6:55 AM 24.8 °F - 21.2 °F 86% 30.17 in 10.0 mi Calm Calm - N/A   Clear
7:15 AM 26.6 °F - 23.0 °F 86% 30.17 in 10.0 mi Calm Calm - N/A   Clear
7:35 AM 26.6 °F - 23.0 °F 86% 30.17 in 10.0 mi Calm Calm - N/A   Clear
7:55 AM 28.4 °F - 24.8 °F 86% 30.18 in 10.0 mi Calm Calm - N/A   Clear
8:15 AM 32.0 °F - 26.6 °F 80% 30.19 in 10.0 mi Calm Calm - N/A   Clear
8:35 AM 32.0 °F - 26.6 °F 80% 30.20 in 10.0 mi Calm Calm - N/A   Clear
8:55 AM 35.6 °F - 26.6 °F 70% 30.20 in 10.0 mi Calm Calm - N/A   Clear
9:15 AM 41.0 °F 38.0 °F 28.4 °F 61% 30.20 in 10.0 mi East 4.6 mph - N/A   Clear
9:35 AM 44.6 °F 40.7 °F 23.0 °F 43% 30.20 in 10.0 mi ENE 6.9 mph - N/A   Clear
9:55 AM 44.6 °F 41.4 °F 21.2 °F 39% 30.21 in 10.0 mi East 5.8 mph - N/A   Clear
10:15 AM 46.4 °F 42.9 °F 21.2 °F 37% 30.21 in 10.0 mi East 6.9 mph - N/A   Clear
10:35 AM 46.4 °F 43.5 °F 21.2 °F 37% 30.20 in 10.0 mi East 5.8 mph - N/A   Clear
10:55 AM 48.2 °F - 19.4 °F 32% 30.20 in 10.0 mi ENE 9.2 mph - N/A   Clear
11:15 AM 48.2 °F - 21.2 °F 34% 30.19 in 10.0 mi East 9.2 mph - N/A   Clear
11:35 AM 48.2 °F - 21.2 °F 34% 30.19 in 10.0 mi East 8.1 mph - N/A   Clear
11:55 AM 50.0 °F - 19.4 °F 30% 30.18 in 10.0 mi East 8.1 mph - N/A   Clear
12:15 PM 50.0 °F - 17.6 °F 28% 30.17 in 10.0 mi NE 3.5 mph - N/A   Clear
12:35 PM 50.0 °F - 19.4 °F 30% 30.16 in 10.0 mi East 6.9 mph - N/A   Clear
12:55 PM 51.8 °F - 15.8 °F 24% 30.15 in 10.0 mi NE 6.9 mph - N/A   Clear
1:15 PM 50.0 °F - 19.4 °F 30% 30.14 in 10.0 mi ENE 11.5 mph 16.1 mph N/A   Clear
1:35 PM 50.0 °F - 21.2 °F 32% 30.13 in 10.0 mi NE 10.4 mph - N/A   Clear
1:55 PM 50.0 °F - 19.4 °F 30% 30.13 in 10.0 mi Calm Calm - N/A   Clear
2:15 PM 51.8 °F - 17.6 °F 26% 30.12 in 10.0 mi East 6.9 mph - N/A   Clear
2:35 PM 51.8 °F - 19.4 °F 28% 30.12 in 10.0 mi East 5.8 mph - N/A   Clear
2:55 PM 50.0 °F - 17.6 °F 28% 30.12 in 10.0 mi NE 5.8 mph - N/A   Clear
3:15 PM 50.0 °F - 19.4 °F 30% 30.12 in 10.0 mi NE 6.9 mph - N/A   Clear
3:35 PM 50.0 °F - 17.6 °F 28% 30.12 in 10.0 mi North 5.8 mph - N/A   Clear
3:55 PM 50.0 °F - 17.6 °F 28% 30.12 in 10.0 mi East 5.8 mph - N/A   Clear
4:15 PM 46.4 °F 43.5 °F 19.4 °F 34% 30.12 in 10.0 mi ESE 5.8 mph - N/A   Clear
4:35 PM 46.4 °F 44.3 °F 15.8 °F 29% 30.13 in 10.0 mi East 4.6 mph - N/A   Clear
4:55 PM 46.4 °F 44.3 °F 14.0 °F 27% 30.13 in 10.0 mi North 4.6 mph - N/A   Clear
5:15 PM 44.6 °F 42.2 °F 19.4 °F 37% 30.13 in 10.0 mi North 4.6 mph - N/A   Clear
5:35 PM 42.8 °F - 19.4 °F 39% 30.13 in 10.0 mi Calm Calm - N/A   Clear
5:55 PM 37.4 °F - 21.2 °F 52% 30.14 in 10.0 mi Calm Calm - N/A   Clear
6:15 PM 37.4 °F - 21.2 °F 52% 30.15 in 10.0 mi Calm Calm - N/A   Clear
6:35 PM 33.8 °F - 21.2 °F 60% 30.15 in 10.0 mi Calm Calm - N/A   Clear
6:55 PM 32.0 °F - 21.2 °F 64% 30.16 in 10.0 mi Calm Calm - N/A   Clear
7:15 PM 32.0 °F - 23.0 °F 69% 30.16 in 10.0 mi Calm Calm - N/A   Clear
7:35 PM 30.2 °F - 21.2 °F 69% 30.16 in 10.0 mi Calm Calm - N/A   Clear
7:55 PM 30.2 °F - 21.2 °F 69% 30.17 in 10.0 mi Calm Calm - N/A   Clear
8:15 PM 28.4 °F - 21.2 °F 74% 30.17 in 10.0 mi Calm Calm - N/A   Clear
8:35 PM 28.4 °F - 21.2 °F 74% 30.17 in 10.0 mi Calm Calm - N/A   Clear
8:55 PM 28.4 °F - 21.2 °F 74% 30.17 in 10.0 mi Calm Calm - N/A   Clear
9:15 PM 28.4 °F - 21.2 °F 74% 30.18 in 10.0 mi Calm Calm - N/A   Clear
9:35 PM 26.6 °F - 19.4 °F 74% 30.17 in 10.0 mi Calm Calm - N/A   Clear
9:55 PM 26.6 °F - 19.4 °F 74% 30.17 in 10.0 mi Calm Calm - N/A   Clear
10:15 PM 26.6 °F - 19.4 °F 74% 30.17 in 10.0 mi Calm Calm - N/A   Clear
10:35 PM 26.6 °F - 19.4 °F 74% 30.17 in 10.0 mi Calm Calm - N/A   Clear
10:55 PM 26.6 °F - 19.4 °F 74% 30.17 in 10.0 mi Calm Calm - N/A   Clear
11:15 PM 26.6 °F - 17.6 °F 69% 30.17 in 10.0 mi Calm Calm - N/A   Clear
11:35 PM 26.6 °F - 17.6 °F 69% 30.17 in 10.0 mi Calm Calm - N/A   Clear
11:55 PM 24.8 °F - 17.6 °F 74% 30.17 in 10.0 mi Calm Calm - N/A   Clear